sensor_id;sensor_type;location;lat;lon;timestamp;P1;durP1;ratioP1;P2;durP2;ratioP2
56824;SDS011;42705;50.326;18.772;2023-10-31T00:00:32;3.30;;;2.00;;
56824;SDS011;42705;50.326;18.772;2023-10-31T00:06:14;5.90;;;2.40;;
56824;SDS011;42705;50.326;18.772;2023-10-31T00:11:36;6.70;;;2.70;;
56824;SDS011;42705;50.326;18.772;2023-10-31T00:16:58;7.00;;;2.60;;
56824;SDS011;42705;50.326;18.772;2023-10-31T00:22:20;4.60;;;2.40;;
56824;SDS011;42705;50.326;18.772;2023-10-31T00:27:42;4.70;;;2.50;;
56824;SDS011;42705;50.326;18.772;2023-10-31T00:33:04;4.80;;;2.10;;
56824;SDS011;42705;50.326;18.772;2023-10-31T00:38:26;2.50;;;1.30;;
56824;SDS011;42705;50.326;18.772;2023-10-31T00:43:48;1.70;;;1.10;;
56824;SDS011;42705;50.326;18.772;2023-10-31T00:49:10;4.60;;;0.80;;
56824;SDS011;42705;50.326;18.772;2023-10-31T00:54:31;3.00;;;1.00;;
56824;SDS011;42705;50.326;18.772;2023-10-31T00:59:55;6.00;;;1.20;;
56824;SDS011;42705;50.326;18.772;2023-10-31T01:05:16;3.60;;;1.00;;
56824;SDS011;42705;50.326;18.772;2023-10-31T01:10:41;8.90;;;1.30;;
56824;SDS011;42705;50.326;18.772;2023-10-31T01:16:03;2.80;;;1.00;;
56824;SDS011;42705;50.326;18.772;2023-10-31T01:21:26;3.40;;;1.50;;
56824;SDS011;42705;50.326;18.772;2023-10-31T01:26:47;3.80;;;1.40;;
56824;SDS011;42705;50.326;18.772;2023-10-31T01:32:09;2.60;;;0.80;;
56824;SDS011;42705;50.326;18.772;2023-10-31T01:37:31;2.60;;;0.80;;
56824;SDS011;42705;50.326;18.772;2023-10-31T01:42:53;2.30;;;0.80;;
56824;SDS011;42705;50.326;18.772;2023-10-31T01:48:16;3.80;;;1.30;;
56824;SDS011;42705;50.326;18.772;2023-10-31T01:53:38;3.40;;;1.20;;
56824;SDS011;42705;50.326;18.772;2023-10-31T01:59:01;2.50;;;1.00;;
56824;SDS011;42705;50.326;18.772;2023-10-31T02:09:45;4.10;;;1.40;;
56824;SDS011;42705;50.326;18.772;2023-10-31T02:20:30;5.40;;;1.20;;
56824;SDS011;42705;50.326;18.772;2023-10-31T02:25:52;3.20;;;1.30;;
56824;SDS011;42705;50.326;18.772;2023-10-31T02:31:14;2.20;;;0.90;;
56824;SDS011;42705;50.326;18.772;2023-10-31T02:36:36;2.10;;;0.80;;
56824;SDS011;42705;50.326;18.772;2023-10-31T02:41:58;2.90;;;1.00;;
56824;SDS011;42705;50.326;18.772;2023-10-31T02:47:20;4.30;;;1.10;;
56824;SDS011;42705;50.326;18.772;2023-10-31T02:52:42;2.60;;;0.80;;
56824;SDS011;42705;50.326;18.772;2023-10-31T02:58:04;2.10;;;0.80;;
56824;SDS011;42705;50.326;18.772;2023-10-31T03:03:26;2.60;;;0.90;;
56824;SDS011;42705;50.326;18.772;2023-10-31T03:08:48;4.20;;;0.90;;
56824;SDS011;42705;50.326;18.772;2023-10-31T03:14:10;2.70;;;0.90;;
56824;SDS011;42705;50.326;18.772;2023-10-31T03:19:32;3.70;;;1.10;;
56824;SDS011;42705;50.326;18.772;2023-10-31T03:24:54;3.00;;;1.30;;
56824;SDS011;42705;50.326;18.772;2023-10-31T03:30:16;2.40;;;1.10;;
56824;SDS011;42705;50.326;18.772;2023-10-31T03:35:38;3.10;;;1.40;;
56824;SDS011;42705;50.326;18.772;2023-10-31T03:41:00;7.10;;;1.30;;
56824;SDS011;42705;50.326;18.772;2023-10-31T03:46:23;3.90;;;1.10;;
56824;SDS011;42705;50.326;18.772;2023-10-31T03:51:45;3.60;;;1.20;;
56824;SDS011;42705;50.326;18.772;2023-10-31T03:57:06;3.90;;;1.10;;
56824;SDS011;42705;50.326;18.772;2023-10-31T04:02:30;6.50;;;1.20;;
56824;SDS011;42705;50.326;18.772;2023-10-31T04:07:52;4.70;;;1.60;;
56824;SDS011;42705;50.326;18.772;2023-10-31T04:13:14;8.00;;;1.80;;
56824;SDS011;42705;50.326;18.772;2023-10-31T04:18:36;2.50;;;1.20;;
56824;SDS011;42705;50.326;18.772;2023-10-31T04:23:58;5.80;;;1.30;;
56824;SDS011;42705;50.326;18.772;2023-10-31T04:29:20;4.20;;;1.30;;
56824;SDS011;42705;50.326;18.772;2023-10-31T04:34:42;3.30;;;1.10;;
56824;SDS011;42705;50.326;18.772;2023-10-31T04:40:04;3.50;;;1.10;;
56824;SDS011;42705;50.326;18.772;2023-10-31T04:45:27;4.00;;;1.50;;
56824;SDS011;42705;50.326;18.772;2023-10-31T04:50:49;4.70;;;1.60;;
56824;SDS011;42705;50.326;18.772;2023-10-31T04:56:14;4.50;;;1.20;;
56824;SDS011;42705;50.326;18.772;2023-10-31T05:01:37;4.50;;;1.30;;
56824;SDS011;42705;50.326;18.772;2023-10-31T05:06:59;3.60;;;1.60;;
56824;SDS011;42705;50.326;18.772;2023-10-31T05:12:22;2.70;;;1.40;;
56824;SDS011;42705;50.326;18.772;2023-10-31T05:17:45;5.20;;;1.60;;
56824;SDS011;42705;50.326;18.772;2023-10-31T05:23:07;4.40;;;1.80;;
56824;SDS011;42705;50.326;18.772;2023-10-31T05:28:30;6.00;;;1.40;;
56824;SDS011;42705;50.326;18.772;2023-10-31T05:33:52;2.90;;;1.40;;
56824;SDS011;42705;50.326;18.772;2023-10-31T05:39:14;7.10;;;1.60;;
56824;SDS011;42705;50.326;18.772;2023-10-31T05:44:36;4.30;;;1.60;;
56824;SDS011;42705;50.326;18.772;2023-10-31T05:49:58;6.70;;;1.40;;
56824;SDS011;42705;50.326;18.772;2023-10-31T05:55:22;8.40;;;1.20;;
56824;SDS011;42705;50.326;18.772;2023-10-31T06:00:44;6.20;;;1.40;;
56824;SDS011;42705;50.326;18.772;2023-10-31T06:06:06;6.80;;;1.60;;
56824;SDS011;42705;50.326;18.772;2023-10-31T06:11:29;5.70;;;1.60;;
56824;SDS011;42705;50.326;18.772;2023-10-31T06:16:51;5.00;;;1.40;;
56824;SDS011;42705;50.326;18.772;2023-10-31T06:22:13;3.60;;;1.50;;
56824;SDS011;42705;50.326;18.772;2023-10-31T06:27:35;5.80;;;1.50;;
56824;SDS011;42705;50.326;18.772;2023-10-31T06:32:57;4.70;;;1.30;;
56824;SDS011;42705;50.326;18.772;2023-10-31T06:38:20;4.00;;;1.30;;
56824;SDS011;42705;50.326;18.772;2023-10-31T06:43:41;3.90;;;1.50;;
56824;SDS011;42705;50.326;18.772;2023-10-31T06:49:03;4.70;;;1.30;;
56824;SDS011;42705;50.326;18.772;2023-10-31T06:54:25;2.90;;;0.90;;
56824;SDS011;42705;50.326;18.772;2023-10-31T06:59:47;4.70;;;1.40;;
56824;SDS011;42705;50.326;18.772;2023-10-31T07:05:09;4.30;;;1.20;;
56824;SDS011;42705;50.326;18.772;2023-10-31T07:10:31;1.50;;;0.90;;
56824;SDS011;42705;50.326;18.772;2023-10-31T07:15:54;3.20;;;1.20;;
56824;SDS011;42705;50.326;18.772;2023-10-31T07:21:16;2.70;;;1.20;;
56824;SDS011;42705;50.326;18.772;2023-10-31T07:26:38;4.40;;;1.40;;
56824;SDS011;42705;50.326;18.772;2023-10-31T07:32:00;6.10;;;1.50;;
56824;SDS011;42705;50.326;18.772;2023-10-31T07:37:22;5.30;;;1.80;;
56824;SDS011;42705;50.326;18.772;2023-10-31T07:42:44;8.30;;;1.90;;
56824;SDS011;42705;50.326;18.772;2023-10-31T07:48:06;5.20;;;2.10;;
56824;SDS011;42705;50.326;18.772;2023-10-31T07:53:29;8.30;;;1.90;;
56824;SDS011;42705;50.326;18.772;2023-10-31T07:58:51;6.50;;;2.20;;
56824;SDS011;42705;50.326;18.772;2023-10-31T08:04:13;4.70;;;2.00;;
56824;SDS011;42705;50.326;18.772;2023-10-31T08:09:37;6.70;;;2.40;;
56824;SDS011;42705;50.326;18.772;2023-10-31T08:14:59;3.70;;;2.00;;
56824;SDS011;42705;50.326;18.772;2023-10-31T08:25:43;11.00;;;2.70;;
56824;SDS011;42705;50.326;18.772;2023-10-31T08:31:05;6.80;;;2.50;;
56824;SDS011;42705;50.326;18.772;2023-10-31T08:36:29;7.20;;;2.40;;
56824;SDS011;42705;50.326;18.772;2023-10-31T08:41:54;5.20;;;2.50;;
56824;SDS011;42705;50.326;18.772;2023-10-31T08:47:17;7.90;;;2.70;;
56824;SDS011;42705;50.326;18.772;2023-10-31T08:52:40;6.90;;;2.60;;
56824;SDS011;42705;50.326;18.772;2023-10-31T08:58:02;7.00;;;2.80;;
56824;SDS011;42705;50.326;18.772;2023-10-31T09:03:24;3.60;;;2.70;;
56824;SDS011;42705;50.326;18.772;2023-10-31T09:08:46;5.40;;;2.70;;
56824;SDS011;42705;50.326;18.772;2023-10-31T09:14:08;9.00;;;3.20;;
56824;SDS011;42705;50.326;18.772;2023-10-31T09:19:30;5.20;;;2.80;;
56824;SDS011;42705;50.326;18.772;2023-10-31T09:24:52;7.00;;;2.60;;
56824;SDS011;42705;50.326;18.772;2023-10-31T09:30:14;4.30;;;2.40;;
56824;SDS011;42705;50.326;18.772;2023-10-31T09:35:35;6.00;;;3.60;;
56824;SDS011;42705;50.326;18.772;2023-10-31T09:40:57;4.40;;;2.40;;
56824;SDS011;42705;50.326;18.772;2023-10-31T09:46:20;3.70;;;3.20;;
56824;SDS011;42705;50.326;18.772;2023-10-31T09:51:45;8.10;;;2.70;;
56824;SDS011;42705;50.326;18.772;2023-10-31T09:57:09;8.10;;;4.30;;
56824;SDS011;42705;50.326;18.772;2023-10-31T10:02:33;10.10;;;4.20;;
56824;SDS011;42705;50.326;18.772;2023-10-31T10:07:55;9.30;;;4.20;;
56824;SDS011;42705;50.326;18.772;2023-10-31T10:13:18;4.80;;;3.40;;
56824;SDS011;42705;50.326;18.772;2023-10-31T10:18:40;5.00;;;2.90;;
56824;SDS011;42705;50.326;18.772;2023-10-31T10:24:02;8.20;;;3.20;;
56824;SDS011;42705;50.326;18.772;2023-10-31T10:29:24;7.60;;;3.80;;
56824;SDS011;42705;50.326;18.772;2023-10-31T10:34:48;4.50;;;2.10;;
56824;SDS011;42705;50.326;18.772;2023-10-31T10:40:10;2.80;;;1.70;;
56824;SDS011;42705;50.326;18.772;2023-10-31T10:45:32;2.70;;;1.20;;
56824;SDS011;42705;50.326;18.772;2023-10-31T10:50:57;5.90;;;2.50;;
56824;SDS011;42705;50.326;18.772;2023-10-31T10:56:26;4.70;;;1.60;;
56824;SDS011;42705;50.326;18.772;2023-10-31T11:01:52;2.00;;;1.20;;
56824;SDS011;42705;50.326;18.772;2023-10-31T11:07:15;2.60;;;1.20;;
56824;SDS011;42705;50.326;18.772;2023-10-31T11:12:40;3.00;;;1.20;;
56824;SDS011;42705;50.326;18.772;2023-10-31T11:18:03;3.40;;;1.60;;
56824;SDS011;42705;50.326;18.772;2023-10-31T11:23:27;2.70;;;1.40;;
56824;SDS011;42705;50.326;18.772;2023-10-31T11:28:50;3.30;;;1.60;;
56824;SDS011;42705;50.326;18.772;2023-10-31T11:34:12;4.30;;;1.90;;
56824;SDS011;42705;50.326;18.772;2023-10-31T11:39:36;5.20;;;2.20;;
56824;SDS011;42705;50.326;18.772;2023-10-31T11:44:58;4.90;;;2.30;;
56824;SDS011;42705;50.326;18.772;2023-10-31T11:50:20;5.90;;;2.80;;
56824;SDS011;42705;50.326;18.772;2023-10-31T11:55:44;4.00;;;2.00;;
56824;SDS011;42705;50.326;18.772;2023-10-31T12:01:09;3.30;;;1.90;;
56824;SDS011;42705;50.326;18.772;2023-10-31T12:06:32;7.30;;;2.50;;
56824;SDS011;42705;50.326;18.772;2023-10-31T12:11:54;4.80;;;1.80;;
56824;SDS011;42705;50.326;18.772;2023-10-31T12:17:15;2.40;;;1.20;;
56824;SDS011;42705;50.326;18.772;2023-10-31T12:22:37;4.00;;;1.80;;
56824;SDS011;42705;50.326;18.772;2023-10-31T12:28:01;5.40;;;2.00;;
56824;SDS011;42705;50.326;18.772;2023-10-31T12:33:24;2.90;;;1.40;;
56824;SDS011;42705;50.326;18.772;2023-10-31T12:38:47;4.10;;;1.70;;
56824;SDS011;42705;50.326;18.772;2023-10-31T12:44:10;5.80;;;1.50;;
56824;SDS011;42705;50.326;18.772;2023-10-31T12:49:35;3.40;;;1.50;;
56824;SDS011;42705;50.326;18.772;2023-10-31T12:54:57;3.30;;;1.00;;
56824;SDS011;42705;50.326;18.772;2023-10-31T13:00:19;4.60;;;1.40;;
56824;SDS011;42705;50.326;18.772;2023-10-31T13:05:47;2.30;;;1.20;;
56824;SDS011;42705;50.326;18.772;2023-10-31T13:11:09;2.70;;;1.20;;
56824;SDS011;42705;50.326;18.772;2023-10-31T13:16:31;5.00;;;1.40;;
56824;SDS011;42705;50.326;18.772;2023-10-31T13:21:55;3.30;;;1.50;;
56824;SDS011;42705;50.326;18.772;2023-10-31T13:27:17;2.40;;;1.40;;
56824;SDS011;42705;50.326;18.772;2023-10-31T13:32:40;2.70;;;1.80;;
56824;SDS011;42705;50.326;18.772;2023-10-31T13:38:02;2.50;;;1.40;;
56824;SDS011;42705;50.326;18.772;2023-10-31T13:43:24;4.50;;;2.00;;
56824;SDS011;42705;50.326;18.772;2023-10-31T13:48:46;5.00;;;1.90;;
56824;SDS011;42705;50.326;18.772;2023-10-31T13:54:17;3.40;;;2.10;;
56824;SDS011;42705;50.326;18.772;2023-10-31T13:59:40;5.40;;;2.50;;
56824;SDS011;42705;50.326;18.772;2023-10-31T14:05:02;6.10;;;2.30;;
56824;SDS011;42705;50.326;18.772;2023-10-31T14:10:25;4.50;;;2.60;;
56824;SDS011;42705;50.326;18.772;2023-10-31T14:15:48;3.40;;;2.40;;
56824;SDS011;42705;50.326;18.772;2023-10-31T14:21:09;7.00;;;2.90;;
56824;SDS011;42705;50.326;18.772;2023-10-31T14:26:33;7.00;;;3.20;;
56824;SDS011;42705;50.326;18.772;2023-10-31T14:31:56;8.00;;;3.60;;
56824;SDS011;42705;50.326;18.772;2023-10-31T14:42:40;5.50;;;3.30;;
56824;SDS011;42705;50.326;18.772;2023-10-31T14:48:05;5.80;;;2.70;;
56824;SDS011;42705;50.326;18.772;2023-10-31T14:53:27;5.80;;;2.60;;
56824;SDS011;42705;50.326;18.772;2023-10-31T14:58:49;6.10;;;3.50;;
56824;SDS011;42705;50.326;18.772;2023-10-31T15:04:11;5.40;;;2.40;;
56824;SDS011;42705;50.326;18.772;2023-10-31T15:09:33;6.80;;;2.40;;
56824;SDS011;42705;50.326;18.772;2023-10-31T15:14:55;5.50;;;2.50;;
56824;SDS011;42705;50.326;18.772;2023-10-31T15:20:17;5.70;;;3.00;;
56824;SDS011;42705;50.326;18.772;2023-10-31T15:25:39;6.30;;;3.00;;
56824;SDS011;42705;50.326;18.772;2023-10-31T15:31:02;5.20;;;2.70;;
56824;SDS011;42705;50.326;18.772;2023-10-31T15:36:24;4.50;;;2.40;;
56824;SDS011;42705;50.326;18.772;2023-10-31T15:41:46;8.90;;;3.20;;
56824;SDS011;42705;50.326;18.772;2023-10-31T15:47:08;7.80;;;4.40;;
56824;SDS011;42705;50.326;18.772;2023-10-31T15:52:31;10.40;;;5.00;;
56824;SDS011;42705;50.326;18.772;2023-10-31T15:57:54;11.90;;;6.90;;
56824;SDS011;42705;50.326;18.772;2023-10-31T16:08:38;11.50;;;6.20;;
56824;SDS011;42705;50.326;18.772;2023-10-31T16:14:04;6.70;;;3.50;;
56824;SDS011;42705;50.326;18.772;2023-10-31T16:19:26;7.30;;;3.20;;
56824;SDS011;42705;50.326;18.772;2023-10-31T16:24:48;9.80;;;4.10;;
56824;SDS011;42705;50.326;18.772;2023-10-31T16:30:13;7.60;;;4.70;;
56824;SDS011;42705;50.326;18.772;2023-10-31T16:35:35;7.00;;;5.20;;
56824;SDS011;42705;50.326;18.772;2023-10-31T16:40:59;10.80;;;5.40;;
56824;SDS011;42705;50.326;18.772;2023-10-31T16:46:23;10.30;;;6.70;;
56824;SDS011;42705;50.326;18.772;2023-10-31T16:51:45;9.40;;;6.10;;
56824;SDS011;42705;50.326;18.772;2023-10-31T16:57:07;8.60;;;6.40;;
56824;SDS011;42705;50.326;18.772;2023-10-31T17:02:31;6.90;;;5.20;;
56824;SDS011;42705;50.326;18.772;2023-10-31T17:07:53;7.90;;;5.60;;
56824;SDS011;42705;50.326;18.772;2023-10-31T17:13:15;10.50;;;7.40;;
56824;SDS011;42705;50.326;18.772;2023-10-31T17:18:37;8.70;;;6.30;;
56824;SDS011;42705;50.326;18.772;2023-10-31T17:24:01;11.30;;;6.70;;
56824;SDS011;42705;50.326;18.772;2023-10-31T17:29:23;13.40;;;7.00;;
56824;SDS011;42705;50.326;18.772;2023-10-31T17:34:45;14.50;;;7.60;;
56824;SDS011;42705;50.326;18.772;2023-10-31T17:40:07;8.90;;;6.00;;
56824;SDS011;42705;50.326;18.772;2023-10-31T17:45:33;9.00;;;5.10;;
56824;SDS011;42705;50.326;18.772;2023-10-31T17:50:59;6.40;;;5.00;;
56824;SDS011;42705;50.326;18.772;2023-10-31T17:56:21;6.50;;;4.20;;
56824;SDS011;42705;50.326;18.772;2023-10-31T18:01:43;8.40;;;4.80;;
56824;SDS011;42705;50.326;18.772;2023-10-31T18:07:05;5.70;;;3.40;;
56824;SDS011;42705;50.326;18.772;2023-10-31T18:12:27;5.90;;;4.30;;
56824;SDS011;42705;50.326;18.772;2023-10-31T18:17:49;5.50;;;3.90;;
56824;SDS011;42705;50.326;18.772;2023-10-31T18:23:11;5.90;;;3.70;;
56824;SDS011;42705;50.326;18.772;2023-10-31T18:28:33;6.80;;;4.30;;
56824;SDS011;42705;50.326;18.772;2023-10-31T18:33:55;7.50;;;4.30;;
56824;SDS011;42705;50.326;18.772;2023-10-31T18:39:17;6.60;;;4.20;;
56824;SDS011;42705;50.326;18.772;2023-10-31T18:44:39;7.10;;;4.40;;
56824;SDS011;42705;50.326;18.772;2023-10-31T18:50:04;5.90;;;4.00;;
56824;SDS011;42705;50.326;18.772;2023-10-31T18:55:27;6.30;;;3.50;;
56824;SDS011;42705;50.326;18.772;2023-10-31T19:00:49;6.50;;;3.30;;
56824;SDS011;42705;50.326;18.772;2023-10-31T19:06:11;4.00;;;2.60;;
56824;SDS011;42705;50.326;18.772;2023-10-31T19:11:33;5.30;;;3.00;;
56824;SDS011;42705;50.326;18.772;2023-10-31T19:16:56;4.00;;;3.20;;
56824;SDS011;42705;50.326;18.772;2023-10-31T19:22:19;5.80;;;3.40;;
56824;SDS011;42705;50.326;18.772;2023-10-31T19:27:41;5.70;;;4.20;;
56824;SDS011;42705;50.326;18.772;2023-10-31T19:33:03;7.40;;;5.60;;
56824;SDS011;42705;50.326;18.772;2023-10-31T19:38:37;6.40;;;5.30;;
56824;SDS011;42705;50.326;18.772;2023-10-31T19:43:59;5.50;;;3.70;;
56824;SDS011;42705;50.326;18.772;2023-10-31T19:49:22;6.50;;;5.00;;
56824;SDS011;42705;50.326;18.772;2023-10-31T19:54:44;7.00;;;3.60;;
56824;SDS011;42705;50.326;18.772;2023-10-31T20:00:08;4.80;;;3.80;;
56824;SDS011;42705;50.326;18.772;2023-10-31T20:05:33;5.70;;;4.60;;
56824;SDS011;42705;50.326;18.772;2023-10-31T20:10:55;5.20;;;3.90;;
56824;SDS011;42705;50.326;18.772;2023-10-31T20:16:18;6.70;;;4.30;;
56824;SDS011;42705;50.326;18.772;2023-10-31T20:21:40;8.40;;;5.70;;
56824;SDS011;42705;50.326;18.772;2023-10-31T20:27:02;8.20;;;5.30;;
56824;SDS011;42705;50.326;18.772;2023-10-31T20:32:24;5.30;;;4.50;;
56824;SDS011;42705;50.326;18.772;2023-10-31T20:37:46;5.20;;;4.40;;
56824;SDS011;42705;50.326;18.772;2023-10-31T20:43:10;6.10;;;4.30;;
56824;SDS011;42705;50.326;18.772;2023-10-31T20:48:32;4.90;;;3.70;;
56824;SDS011;42705;50.326;18.772;2023-10-31T20:53:55;5.30;;;4.20;;
56824;SDS011;42705;50.326;18.772;2023-10-31T20:59:17;4.50;;;3.70;;
56824;SDS011;42705;50.326;18.772;2023-10-31T21:04:40;7.20;;;4.40;;
56824;SDS011;42705;50.326;18.772;2023-10-31T21:10:03;7.80;;;4.60;;
56824;SDS011;42705;50.326;18.772;2023-10-31T21:15:26;9.20;;;5.60;;
56824;SDS011;42705;50.326;18.772;2023-10-31T21:20:48;8.90;;;5.20;;
56824;SDS011;42705;50.326;18.772;2023-10-31T21:26:11;9.90;;;5.00;;
56824;SDS011;42705;50.326;18.772;2023-10-31T21:31:33;8.50;;;5.30;;
56824;SDS011;42705;50.326;18.772;2023-10-31T21:36:55;12.30;;;5.40;;
56824;SDS011;42705;50.326;18.772;2023-10-31T21:42:17;9.10;;;5.00;;
56824;SDS011;42705;50.326;18.772;2023-10-31T21:47:39;10.30;;;5.20;;
56824;SDS011;42705;50.326;18.772;2023-10-31T21:53:01;8.50;;;5.50;;
56824;SDS011;42705;50.326;18.772;2023-10-31T21:58:23;5.90;;;4.30;;
56824;SDS011;42705;50.326;18.772;2023-10-31T22:03:45;6.40;;;3.90;;
56824;SDS011;42705;50.326;18.772;2023-10-31T22:09:07;6.10;;;4.10;;
56824;SDS011;42705;50.326;18.772;2023-10-31T22:14:30;7.00;;;4.30;;
56824;SDS011;42705;50.326;18.772;2023-10-31T22:19:51;5.20;;;4.10;;
56824;SDS011;42705;50.326;18.772;2023-10-31T22:25:14;5.90;;;3.80;;
56824;SDS011;42705;50.326;18.772;2023-10-31T22:30:37;6.10;;;4.40;;
56824;SDS011;42705;50.326;18.772;2023-10-31T22:35:59;6.50;;;4.50;;
56824;SDS011;42705;50.326;18.772;2023-10-31T22:41:21;6.20;;;5.30;;
56824;SDS011;42705;50.326;18.772;2023-10-31T22:46:43;6.20;;;5.40;;
56824;SDS011;42705;50.326;18.772;2023-10-31T22:52:06;6.70;;;5.40;;
56824;SDS011;42705;50.326;18.772;2023-10-31T22:57:28;6.70;;;5.10;;
56824;SDS011;42705;50.326;18.772;2023-10-31T23:02:50;7.40;;;5.00;;
56824;SDS011;42705;50.326;18.772;2023-10-31T23:08:12;6.50;;;4.60;;
56824;SDS011;42705;50.326;18.772;2023-10-31T23:13:35;5.70;;;4.80;;
56824;SDS011;42705;50.326;18.772;2023-10-31T23:18:58;9.10;;;5.50;;
56824;SDS011;42705;50.326;18.772;2023-10-31T23:24:20;6.80;;;4.90;;
56824;SDS011;42705;50.326;18.772;2023-10-31T23:29:42;8.10;;;6.20;;
56824;SDS011;42705;50.326;18.772;2023-10-31T23:35:05;7.10;;;6.30;;
56824;SDS011;42705;50.326;18.772;2023-10-31T23:40:27;7.80;;;6.30;;
56824;SDS011;42705;50.326;18.772;2023-10-31T23:45:49;7.40;;;5.70;;
56824;SDS011;42705;50.326;18.772;2023-10-31T23:51:11;7.60;;;5.00;;
56824;SDS011;42705;50.326;18.772;2023-10-31T23:56:40;5.50;;;4.80;;
